createdAt,value
2022-08-20T00:01:44.179Z,9.10
2022-08-20T00:04:11.909Z,9.68
2022-08-20T00:06:40.503Z,9.40
2022-08-20T00:09:07.940Z,9.43
2022-08-20T00:11:35.920Z,9.30
2022-08-20T00:14:05.964Z,8.52
2022-08-20T00:16:36.807Z,8.85
2022-08-20T00:19:07.752Z,8.77
2022-08-20T00:21:36.510Z,8.80
2022-08-20T00:24:05.495Z,9.57
2022-08-20T00:26:33.132Z,10.02
2022-08-20T00:29:00.834Z,9.70
2022-08-20T00:31:28.931Z,9.68
2022-08-20T00:33:56.241Z,9.10
2022-08-20T00:36:32.340Z,9.25
2022-08-20T00:39:01.363Z,9.30
2022-08-20T00:41:29.711Z,9.80
2022-08-20T00:44:06.297Z,9.27
2022-08-20T00:46:34.922Z,9.65
2022-08-20T00:49:03.949Z,10.63
2022-08-20T00:51:38.369Z,9.40
2022-08-20T00:54:11.625Z,9.43
2022-08-20T00:56:39.709Z,9.23
2022-08-20T00:59:12.501Z,9.30
2022-08-20T01:01:55.473Z,9.35
2022-08-20T01:04:26.531Z,9.73
2022-08-20T01:06:54.406Z,9.48
2022-08-20T01:09:49.945Z,9.95
2022-08-20T01:12:13.817Z,9.88
2022-08-20T01:14:46.654Z,9.75
2022-08-20T01:17:22.435Z,8.95
2022-08-20T01:20:08.584Z,9.80
2022-08-20T01:23:04.417Z,10.13
2022-08-20T01:26:00.481Z,9.35
2022-08-20T01:28:39.052Z,9.00
2022-08-20T01:31:08.700Z,10.02
2022-08-20T01:33:36.792Z,9.10
2022-08-20T01:36:06.547Z,9.27
2022-08-20T01:38:34.993Z,9.90
2022-08-20T01:41:33.882Z,10.32
2022-08-20T01:44:01.451Z,9.70
2022-08-20T01:46:34.985Z,9.40
2022-08-20T01:49:15.632Z,9.90
2022-08-20T01:51:49.665Z,9.43
2022-08-20T01:54:17.576Z,10.45
2022-08-20T01:56:57.167Z,9.73
2022-08-20T01:59:25.474Z,9.60
2022-08-20T02:01:53.329Z,8.77
2022-08-20T02:04:21.571Z,9.45
2022-08-20T02:06:57.923Z,9.93
2022-08-20T02:09:29.721Z,9.93
2022-08-20T02:11:59.226Z,9.80
2022-08-20T02:14:27.752Z,9.82
2022-08-20T02:16:58.718Z,11.07
2022-08-20T02:19:51.924Z,11.70
2022-08-20T02:22:31.913Z,9.73
2022-08-20T02:24:59.195Z,10.00
2022-08-20T02:27:26.825Z,10.25
2022-08-20T02:29:55.075Z,9.48
2022-08-20T02:32:24.927Z,9.25
2022-08-20T02:35:07.349Z,9.80
2022-08-20T02:37:36.691Z,9.10
2022-08-20T02:40:08.279Z,10.05
2022-08-20T02:42:39.438Z,10.32
2022-08-20T02:45:08.618Z,10.43
2022-08-20T02:47:41.812Z,9.80
2022-08-20T02:50:14.254Z,9.63
2022-08-20T02:52:42.742Z,9.90
2022-08-20T02:55:27.723Z,9.75
2022-08-20T02:57:59.060Z,9.80
2022-08-20T03:00:28.935Z,9.65
2022-08-20T03:03:00.610Z,10.20
2022-08-20T03:05:28.785Z,9.68
2022-08-20T03:07:59.494Z,9.73
2022-08-20T03:10:32.335Z,9.88
2022-08-20T03:13:02.469Z,9.80
2022-08-20T03:15:31.687Z,9.70
2022-08-20T03:17:59.354Z,8.85
2022-08-20T03:20:27.941Z,9.73
2022-08-20T03:22:55.960Z,8.95
2022-08-20T03:25:24.288Z,10.07
2022-08-20T03:27:55.011Z,10.02
2022-08-20T03:30:26.280Z,9.82
2022-08-20T03:32:55.519Z,8.93
2022-08-20T03:35:25.166Z,10.48
2022-08-20T03:37:55.670Z,9.43
2022-08-20T03:40:27.987Z,9.50
2022-08-20T03:42:56.575Z,9.98
2022-08-20T03:45:25.950Z,10.18
2022-08-20T03:47:57.470Z,9.20
2022-08-20T03:50:29.299Z,9.93
2022-08-20T03:52:57.893Z,10.40
2022-08-20T03:55:27.049Z,9.70
2022-08-20T03:57:57.656Z,9.95
2022-08-20T04:00:31.581Z,9.57
2022-08-20T04:03:00.710Z,8.98
2022-08-20T04:05:31.137Z,9.75
2022-08-20T04:08:03.105Z,10.15
2022-08-20T04:10:32.340Z,9.98
2022-08-20T04:15:29.116Z,9.55
2022-08-20T04:17:56.686Z,9.57
2022-08-20T04:20:26.254Z,9.25
2022-08-20T04:23:02.049Z,10.43
2022-08-20T04:25:36.189Z,9.65
2022-08-20T04:28:06.447Z,9.90
2022-08-20T04:30:35.174Z,9.98
2022-08-20T04:33:02.812Z,9.93
2022-08-20T04:35:31.750Z,10.07
2022-08-20T04:38:15.689Z,9.25
2022-08-20T04:40:58.425Z,11.07
2022-08-20T04:43:33.558Z,9.88
2022-08-20T04:46:06.408Z,10.55
2022-08-20T04:48:34.222Z,9.55
2022-08-20T04:51:03.986Z,10.40
2022-08-20T04:53:31.532Z,10.60
2022-08-20T04:56:01.294Z,9.63
2022-08-20T04:58:35.371Z,10.07
2022-08-20T05:01:11.936Z,10.23
2022-08-20T05:03:40.737Z,9.93
2022-08-20T05:06:11.973Z,10.30
2022-08-20T05:08:40.729Z,10.13
2022-08-20T05:11:32.949Z,10.27
2022-08-20T05:13:59.074Z,11.95
2022-08-20T05:16:26.960Z,10.25
2022-08-20T05:18:54.621Z,12.50
2022-08-20T05:21:22.250Z,10.63
2022-08-20T05:23:49.980Z,10.13
2022-08-20T05:26:20.375Z,10.65
2022-08-20T05:28:58.001Z,10.63
2022-08-20T05:31:33.342Z,10.07
2022-08-20T05:34:10.654Z,10.70
2022-08-20T05:36:47.018Z,10.93
2022-08-20T05:39:20.868Z,11.03
2022-08-20T05:41:52.345Z,10.73
2022-08-20T05:44:19.968Z,10.75
2022-08-20T05:46:48.230Z,11.70
2022-08-20T05:49:22.183Z,11.25
2022-08-20T05:51:51.574Z,11.35
2022-08-20T05:54:19.513Z,11.07
2022-08-20T05:56:46.916Z,10.27
2022-08-20T05:59:14.399Z,11.50
2022-08-20T06:01:43.429Z,11.57
2022-08-20T06:04:32.171Z,11.70
2022-08-20T06:07:05.777Z,11.02
2022-08-20T06:09:35.235Z,11.68
2022-08-20T06:12:06.365Z,10.73
2022-08-20T06:14:34.319Z,10.13
2022-08-20T06:17:22.113Z,11.90
2022-08-20T06:19:50.086Z,11.20
2022-08-20T06:22:22.030Z,11.88
2022-08-20T06:24:53.615Z,10.75
2022-08-20T06:27:21.700Z,10.82
2022-08-20T06:29:50.690Z,11.60
2022-08-20T06:32:28.815Z,10.43
2022-08-20T06:35:06.092Z,11.70
2022-08-20T06:37:37.046Z,11.93
2022-08-20T06:40:13.922Z,11.43
2022-08-20T06:42:48.215Z,11.27
2022-08-20T06:45:26.552Z,11.63
2022-08-20T06:47:57.565Z,10.98
2022-08-20T06:50:43.242Z,11.85
2022-08-20T06:53:18.927Z,11.35
2022-08-20T06:55:50.577Z,10.57
2022-08-20T06:58:32.808Z,10.43
2022-08-20T07:01:09.105Z,10.80
2022-08-20T07:03:55.274Z,11.32
2022-08-20T07:06:28.069Z,10.95
2022-08-20T07:08:57.327Z,12.02
2022-08-20T07:11:28.094Z,10.15
2022-08-20T07:13:58.574Z,10.57
2022-08-20T07:16:27.402Z,9.20
2022-08-20T07:18:55.544Z,18.30
2022-08-20T07:23:50.699Z,9.55
2022-08-20T07:26:18.555Z,9.48
2022-08-20T07:28:50.112Z,9.52
2022-08-20T07:31:38.859Z,9.57
2022-08-20T07:34:11.579Z,10.27
2022-08-20T07:36:39.607Z,10.15
2022-08-20T07:39:07.083Z,9.82
2022-08-20T07:41:35.191Z,9.65
2022-08-20T07:44:02.884Z,9.80
2022-08-20T07:46:31.837Z,9.88
2022-08-20T07:48:59.959Z,10.73
2022-08-20T07:51:27.877Z,9.18
2022-08-20T07:53:55.442Z,8.70
2022-08-20T07:56:24.619Z,9.82
2022-08-20T07:58:55.735Z,10.25
2022-08-20T08:01:26.720Z,9.95
2022-08-20T08:03:54.668Z,9.55
2022-08-20T08:06:28.955Z,10.17
2022-08-20T08:09:07.995Z,9.07
2022-08-20T08:11:38.609Z,9.82
2022-08-20T08:14:09.035Z,9.48
2022-08-20T08:16:38.023Z,9.52
2022-08-20T08:19:09.248Z,9.40
2022-08-20T08:21:36.738Z,10.90
2022-08-20T08:24:04.578Z,9.57
2022-08-20T08:26:32.558Z,9.40
2022-08-20T08:28:59.990Z,8.67
2022-08-20T08:31:27.414Z,9.85
2022-08-20T08:33:55.940Z,10.05
2022-08-20T08:36:23.411Z,10.25
2022-08-20T08:38:51.153Z,10.18
2022-08-20T08:41:50.229Z,10.20
2022-08-20T08:44:25.225Z,11.90
2022-08-20T08:46:57.868Z,9.52
2022-08-20T08:49:38.220Z,9.60
2022-08-20T08:52:16.238Z,9.00
2022-08-20T08:54:48.323Z,9.47
2022-08-20T08:57:16.754Z,10.00
2022-08-20T08:59:58.243Z,9.90
2022-08-20T09:02:35.593Z,10.30
2022-08-20T09:05:16.029Z,9.63
2022-08-20T09:07:48.586Z,9.45
2022-08-20T09:10:20.033Z,9.80
2022-08-20T09:12:52.555Z,9.70
2022-08-20T09:19:00.057Z,10.05
2022-08-20T09:21:28.005Z,10.02
2022-08-20T09:23:55.839Z,9.93
2022-08-20T09:26:23.390Z,9.80
2022-08-20T09:28:57.190Z,9.68
2022-08-20T09:31:24.862Z,10.90
2022-08-20T09:33:53.175Z,9.07
2022-08-20T09:36:29.006Z,9.95
2022-08-20T09:39:03.066Z,9.10
2022-08-20T09:41:33.701Z,10.32
2022-08-20T09:44:02.605Z,9.55
2022-08-20T09:46:30.041Z,9.65
2022-08-20T09:48:57.769Z,10.55
2022-08-20T09:51:35.827Z,10.23
2022-08-20T09:54:06.899Z,9.68
2022-08-20T09:56:35.962Z,10.43
2022-08-20T09:59:03.488Z,10.13
2022-08-20T10:01:31.787Z,10.25
2022-08-20T10:06:27.516Z,9.77
2022-08-20T10:08:55.220Z,10.52
2022-08-20T10:13:50.331Z,10.85
2022-08-20T10:16:17.722Z,10.27
2022-08-20T10:18:45.739Z,10.90
2022-08-20T10:21:13.520Z,9.38
2022-08-20T10:23:41.625Z,9.88
2022-08-20T10:30:14.753Z,9.50
2022-08-20T10:35:13.780Z,9.82
2022-08-20T10:37:41.226Z,10.25
2022-08-20T10:40:09.957Z,9.38
2022-08-20T10:42:42.327Z,11.73
2022-08-20T10:45:16.389Z,9.85
2022-08-20T10:47:45.187Z,9.73
2022-08-20T10:50:16.055Z,10.18
2022-08-20T10:52:43.989Z,8.95
2022-08-20T10:55:11.785Z,8.80
2022-08-20T11:00:10.499Z,10.38
2022-08-20T11:02:38.215Z,9.85
2022-08-20T11:05:07.249Z,8.65
2022-08-20T11:07:50.562Z,10.23
2022-08-20T11:10:29.142Z,8.98
2022-08-20T11:12:57.120Z,8.32
2022-08-20T11:15:25.385Z,8.93
2022-08-20T11:17:53.127Z,9.82
2022-08-20T11:20:23.783Z,8.23
2022-08-20T11:22:51.969Z,8.60
2022-08-20T11:25:20.224Z,8.20
2022-08-20T11:27:49.669Z,8.30
2022-08-20T11:30:33.536Z,9.70
2022-08-20T11:33:01.414Z,9.00
2022-08-20T11:38:19.191Z,9.93
2022-08-20T11:40:47.144Z,8.93
2022-08-20T11:43:16.962Z,10.15
2022-08-20T11:45:48.559Z,9.50
2022-08-20T11:48:17.034Z,10.38
2022-08-20T11:50:45.199Z,10.07
2022-08-20T11:55:40.625Z,10.40
2022-08-20T11:58:08.209Z,9.55
2022-08-20T12:00:37.246Z,9.85
2022-08-20T12:03:09.470Z,10.48
2022-08-20T12:05:39.844Z,10.27
2022-08-20T12:08:08.709Z,10.60
2022-08-20T12:10:37.728Z,9.55
2022-08-20T12:13:07.385Z,11.23
2022-08-20T12:15:36.950Z,9.82
2022-08-20T12:18:08.531Z,11.38
2022-08-20T12:20:37.491Z,11.05
2022-08-20T12:23:05.521Z,9.90
2022-08-20T12:25:33.965Z,9.70
2022-08-20T12:28:02.055Z,10.23
2022-08-20T12:30:29.404Z,10.18
2022-08-20T12:32:56.859Z,11.00
2022-08-20T12:35:25.121Z,10.43
2022-08-20T12:37:53.150Z,11.10
2022-08-20T12:40:32.156Z,10.45
2022-08-20T12:43:02.625Z,10.52
2022-08-20T12:45:30.837Z,10.75
2022-08-20T12:48:05.633Z,10.68
2022-08-20T12:50:35.084Z,10.38
2022-08-20T12:53:02.845Z,10.25
2022-08-20T12:55:31.153Z,11.93
2022-08-20T12:58:01.450Z,11.12
2022-08-20T13:00:35.840Z,12.05
2022-08-20T13:03:06.267Z,11.85
2022-08-20T13:05:35.432Z,12.10
2022-08-20T13:08:08.384Z,12.07
2022-08-20T13:10:38.187Z,11.98
2022-08-20T13:13:05.897Z,12.32
2022-08-20T13:15:33.635Z,12.00
2022-08-20T13:18:03.031Z,12.98
2022-08-20T13:20:31.671Z,13.23
2022-08-20T13:23:04.850Z,13.10
2022-08-20T13:25:33.747Z,13.38
2022-08-20T13:28:04.649Z,14.52
2022-08-20T13:30:34.340Z,13.07
2022-08-20T13:33:02.774Z,13.43
2022-08-20T13:35:30.346Z,14.50
2022-08-20T13:37:57.790Z,13.80
2022-08-20T13:40:26.126Z,15.38
2022-08-20T13:42:53.819Z,15.93
2022-08-20T13:45:21.294Z,16.02
2022-08-20T13:47:53.460Z,16.75
2022-08-20T13:57:58.187Z,12.18
2022-08-20T14:00:32.339Z,11.65
2022-08-20T14:03:01.848Z,12.00
2022-08-20T14:05:30.512Z,12.63
2022-08-20T14:08:08.243Z,11.98
2022-08-20T14:10:36.775Z,10.35
2022-08-20T14:13:06.867Z,11.15
2022-08-20T14:15:36.089Z,11.98
2022-08-20T14:18:05.363Z,11.25
2022-08-20T14:20:33.803Z,13.23
2022-08-20T14:23:02.380Z,12.65
2022-08-20T14:25:32.329Z,13.02
2022-08-20T14:28:10.023Z,15.18
2022-08-20T14:30:40.097Z,13.90
2022-08-20T14:33:07.500Z,13.38
2022-08-20T14:35:34.874Z,13.20
2022-08-20T14:38:03.322Z,14.77
2022-08-20T14:40:34.296Z,13.73
2022-08-20T14:45:29.710Z,13.07
2022-08-20T14:47:58.755Z,14.57
2022-08-20T14:50:32.644Z,14.80
2022-08-20T14:53:01.486Z,16.37
2022-08-20T14:55:32.466Z,15.70
2022-08-20T14:58:00.265Z,18.25
2022-08-20T15:00:31.356Z,15.43
2022-08-20T15:02:59.143Z,15.23
2022-08-20T15:05:29.738Z,16.48
2022-08-20T15:07:57.701Z,15.32
2022-08-20T15:10:30.673Z,14.98
2022-08-20T15:12:59.289Z,13.43
2022-08-20T15:15:28.214Z,15.32
2022-08-20T15:18:00.421Z,14.00
2022-08-20T15:20:31.267Z,14.55
2022-08-20T15:22:59.411Z,14.45
2022-08-20T15:25:36.832Z,15.65
2022-08-20T15:28:08.933Z,14.40
2022-08-20T15:30:38.946Z,13.48
2022-08-20T15:33:07.495Z,13.38
2022-08-20T15:35:34.985Z,14.18
2022-08-20T15:38:03.141Z,14.13
2022-08-20T15:43:01.503Z,14.98
2022-08-20T15:45:29.394Z,15.35
2022-08-20T15:48:01.934Z,15.85
2022-08-20T15:51:00.531Z,16.58
2022-08-20T15:53:36.122Z,14.02
2022-08-20T15:56:22.696Z,14.30
2022-08-20T15:58:59.153Z,15.93
2022-08-20T16:01:45.397Z,15.82
2022-08-20T16:04:35.223Z,16.37
2022-08-20T16:07:10.619Z,16.55
2022-08-20T16:10:02.021Z,15.23
2022-08-20T16:12:35.153Z,16.27
2022-08-20T16:15:25.878Z,16.17
2022-08-20T16:18:03.145Z,15.07
2022-08-20T16:20:38.969Z,16.58
2022-08-20T16:23:07.968Z,17.62
2022-08-20T16:25:59.024Z,16.62
2022-08-20T16:28:32.931Z,15.50
2022-08-20T16:31:14.102Z,15.15
2022-08-20T16:34:33.520Z,12.65
2022-08-20T16:37:41.725Z,14.60
2022-08-20T16:40:39.213Z,12.93
2022-08-20T16:43:54.825Z,14.07
2022-08-20T16:46:27.195Z,13.80
2022-08-20T16:49:00.354Z,14.38
2022-08-20T16:51:33.889Z,14.40
2022-08-20T16:54:01.662Z,14.48
2022-08-20T16:56:49.615Z,14.25
2022-08-20T16:59:26.517Z,14.35
2022-08-20T17:02:21.220Z,14.38
2022-08-20T17:04:59.341Z,13.35
2022-08-20T17:07:43.326Z,13.32
2022-08-20T17:10:29.919Z,13.48
2022-08-20T17:13:19.688Z,14.18
2022-08-20T17:15:56.238Z,12.60
2022-08-20T17:18:26.689Z,13.65
2022-08-20T17:21:00.974Z,13.88
2022-08-20T17:23:30.832Z,14.38
2022-08-20T17:26:02.869Z,15.27
2022-08-20T17:28:35.214Z,14.57
2022-08-20T17:31:03.658Z,14.45
2022-08-20T17:33:39.074Z,14.98
2022-08-20T17:36:22.671Z,14.40
2022-08-20T17:39:01.095Z,14.73
2022-08-20T17:44:08.327Z,14.52
2022-08-20T17:46:44.163Z,14.73
2022-08-20T17:49:18.129Z,14.60
2022-08-20T17:51:52.887Z,15.27
2022-08-20T17:54:32.862Z,15.23
2022-08-20T17:57:12.921Z,14.63
2022-08-20T18:00:02.347Z,14.27
2022-08-20T18:02:34.255Z,14.05
2022-08-20T18:05:02.993Z,15.23
2022-08-20T18:08:11.861Z,15.00
2022-08-20T18:10:59.489Z,14.13
2022-08-20T18:14:10.650Z,17.48
2022-08-20T18:17:16.352Z,13.38
2022-08-20T18:20:05.555Z,15.00
2022-08-20T18:22:50.249Z,14.75
2022-08-20T18:25:36.999Z,13.93
2022-08-20T18:28:23.392Z,15.07
2022-08-20T18:31:00.579Z,15.27
2022-08-20T18:33:30.220Z,13.77
2022-08-20T18:36:28.483Z,15.70
2022-08-20T18:41:30.385Z,13.88
2022-08-20T18:44:27.081Z,14.63
2022-08-20T18:46:59.187Z,14.10
2022-08-20T18:49:39.213Z,12.05
2022-08-20T18:52:11.439Z,12.02
2022-08-20T18:54:43.320Z,12.68
2022-08-20T18:57:23.053Z,12.00
2022-08-20T19:00:14.079Z,12.50
2022-08-20T19:03:00.778Z,14.07
2022-08-20T19:06:08.970Z,13.25
2022-08-20T19:08:40.695Z,14.63
2022-08-20T19:11:28.687Z,12.07
2022-08-20T19:14:33.825Z,12.57
2022-08-20T19:17:11.566Z,11.73
2022-08-20T19:19:39.160Z,11.95
2022-08-20T19:22:07.263Z,11.57
2022-08-20T19:24:35.740Z,10.10
2022-08-20T19:27:06.951Z,11.25
2022-08-20T19:29:39.861Z,10.98
2022-08-20T19:32:09.884Z,11.75
2022-08-20T19:34:38.373Z,6.45
2022-08-20T19:37:35.203Z,7.00
2022-08-20T19:40:01.515Z,5.80
2022-08-20T19:42:40.638Z,4.68
2022-08-20T19:45:16.082Z,4.32
2022-08-20T19:47:57.150Z,4.37
2022-08-20T19:50:40.098Z,6.53
2022-08-20T19:53:15.175Z,5.43
2022-08-20T19:55:43.006Z,5.72
2022-08-20T19:58:26.080Z,6.78
2022-08-20T20:00:55.846Z,6.30
2022-08-20T20:03:34.414Z,7.05
2022-08-20T20:06:18.177Z,5.60
2022-08-20T20:08:54.787Z,5.15
2022-08-20T20:11:36.751Z,5.68
2022-08-20T20:14:09.944Z,5.28
2022-08-20T20:16:39.858Z,5.30
2022-08-20T20:19:26.279Z,5.68
2022-08-20T20:22:08.472Z,4.97
2022-08-20T20:24:50.972Z,4.95
2022-08-20T20:27:22.836Z,6.05
2022-08-20T20:29:59.161Z,4.68
2022-08-20T20:32:27.970Z,3.87
2022-08-20T20:34:59.657Z,4.93
2022-08-20T20:37:49.980Z,4.90
2022-08-20T20:40:30.941Z,4.93
2022-08-20T20:43:12.143Z,4.50
2022-08-20T20:45:47.088Z,5.30
2022-08-20T20:48:18.408Z,4.20
2022-08-20T20:50:48.324Z,4.35
2022-08-20T20:53:32.305Z,3.87
2022-08-20T20:56:40.030Z,4.32
2022-08-20T20:59:09.989Z,4.75
2022-08-20T21:01:49.605Z,4.87
2022-08-20T21:04:23.241Z,4.70
2022-08-20T21:06:53.510Z,4.20
2022-08-20T21:09:21.995Z,3.58
2022-08-20T21:11:49.842Z,3.60
2022-08-20T21:14:18.635Z,4.12
2022-08-20T21:16:46.189Z,4.05
2022-08-20T21:19:14.102Z,3.70
2022-08-20T21:21:43.061Z,3.72
2022-08-20T21:24:10.960Z,3.78
2022-08-20T21:26:39.606Z,4.28
2022-08-20T21:29:09.623Z,4.35
2022-08-20T21:31:43.719Z,4.20
2022-08-20T21:34:14.172Z,4.07
2022-08-20T21:36:41.951Z,4.12
2022-08-20T21:39:09.725Z,4.05
2022-08-20T21:41:37.972Z,4.00
2022-08-20T21:44:17.969Z,4.10
2022-08-20T21:46:51.084Z,3.78
2022-08-20T21:49:20.039Z,3.75
2022-08-20T21:51:49.980Z,3.72
2022-08-20T21:54:18.366Z,3.75
2022-08-20T21:56:52.793Z,3.30
2022-08-20T21:59:22.429Z,2.75
2022-08-20T22:01:50.602Z,3.10
2022-08-20T22:04:18.736Z,3.62
2022-08-20T22:06:46.681Z,2.70
2022-08-20T22:09:14.595Z,2.80
2022-08-20T22:11:42.229Z,2.92
2022-08-20T22:14:11.780Z,3.28
2022-08-20T22:16:39.208Z,2.90
2022-08-20T22:19:16.242Z,2.83
2022-08-20T22:21:44.313Z,3.45
2022-08-20T22:24:13.493Z,3.12
2022-08-20T22:26:42.079Z,3.28
2022-08-20T22:29:11.848Z,3.47
2022-08-20T22:31:42.977Z,3.90
2022-08-20T22:34:13.581Z,3.05
2022-08-20T22:36:41.768Z,3.90
2022-08-20T22:39:09.746Z,3.67
2022-08-20T22:41:37.746Z,3.28
2022-08-20T22:44:05.100Z,3.45
2022-08-20T22:46:44.969Z,3.75
2022-08-20T22:49:22.520Z,3.58
2022-08-20T22:51:49.825Z,3.15
2022-08-20T22:54:21.055Z,3.90
2022-08-20T22:56:48.368Z,3.67
2022-08-20T22:59:19.806Z,3.90
2022-08-20T23:01:47.376Z,2.87
2022-08-20T23:04:22.178Z,4.47
2022-08-20T23:06:49.924Z,4.28
2022-08-20T23:09:20.953Z,3.12
2022-08-20T23:11:49.178Z,3.20
2022-08-20T23:14:17.066Z,3.40
2022-08-20T23:16:47.464Z,3.65
2022-08-20T23:19:23.219Z,3.60
2022-08-20T23:21:52.119Z,4.07
2022-08-20T23:26:52.747Z,3.70
2022-08-20T23:29:25.895Z,3.65
2022-08-20T23:31:55.997Z,3.80
2022-08-20T23:34:25.218Z,4.37
2022-08-20T23:39:20.366Z,4.03
2022-08-20T23:41:48.312Z,4.30
2022-08-20T23:44:25.805Z,4.20
2022-08-20T23:46:57.752Z,4.20
2022-08-20T23:49:25.722Z,4.15
2022-08-20T23:51:53.138Z,3.83
2022-08-20T23:54:21.053Z,3.73
2022-08-20T23:56:48.391Z,3.33
2022-08-20T23:59:15.648Z,3.62
